首页
METAR-TAF:

METAR-TAF

机场 :

埃森博阿国际机场

安卡拉埃森博阿, 土耳其

纬度: 40-07N, 经度: 032-59E, 海拔: 953米

当前天气观测

该预报发布于34分钟前的06:50 UTC
风速8节,风向北转东北
温度 2°C
湿度 87%
气压 1009 hPa
能见度10公里或以上
散云层高于4000英尺
多云层高于20000英尺

METAR: LTAC 240650Z 02008KT 9999 SCT040 BKN200 02/M00 Q1009 NOSIG RMK RWY21L 01008KT 340V060 RWY03L 02008KT RWY21R 01011KT

时间: 10:24 (07:24 UTC)

预报

该预报发布于2小时和44分钟前的04:40 UTC
预报有效从24日的 06点(UTC)到 25日的 06点(UTC)
风速2节,风向多变
能见度10公里或以上
散云层高于4000英尺
多云层高于10000英尺
短暂存在
从 24日的 16点(UTC)到 24日的 20点(UTC)
风速12节,风向
多云层高于3000英尺
多云层高于8000英尺
小阵雨

TAF: LTAC 240440Z 2406/2506 VRB02KT 9999 SCT040 BKN100 TEMPO 2416/2420 18012KT -SHRA BKN030 BKN080

超过4000个机场的气象观测和天气预报(METAR&TAF报告)。

可查询的气象台以黄色和红色小点在地图上表示。

将鼠标移到小点上方,可查看气象台名称。

然后点击查看天气观测和预报。

如需切换地图:点击带黑十字的绿色按钮放大地图;点击带横线的绿色按钮缩小地图;或者点击绿色箭头查看邻近地区的地图。


METAR-TAF: